Terminal Aerodrome Forecast
Issued by NWS Goodland, KS

Home | Current Version | Previous Version | Text Only | Print | Product List | Glossary On
Versions: 1 2 3 4 5 6 7 8 9 10 11 12 13 14 15 16 17 18 19 20 21 22 23 24 25
166
FTUS43 KGLD 251159 AAA
TAFGLD
TAF AMD
KGLD 251159Z 2512/2612 15007KT P6SM FEW050 SCT120
     FM251500 11009KT P6SM VCSH SCT060 BKN100
      TEMPO 2515/2516 5SM TSRA BR BKN040CB
     FM252200 13011KT P6SM BKN035
     FM260800 17006KT P6SM SCT025=

USA.gov is the U.S. government's official web portal to all federal, state and local government web resources and services.